createdAt,value
2017-11-26T00:01:02.285Z,94.81
2017-11-26T00:02:05.117Z,94.70
2017-11-26T00:03:07.798Z,94.64
2017-11-26T00:04:10.594Z,94.52
2017-11-26T00:05:13.674Z,94.85
2017-11-26T00:06:16.298Z,94.48
2017-11-26T00:07:19.048Z,94.56
2017-11-26T00:08:21.753Z,94.44
2017-11-26T00:09:25.370Z,94.10
2017-11-26T00:10:28.044Z,93.80
2017-11-26T00:11:31.136Z,94.22
2017-11-26T00:12:33.970Z,94.05
2017-11-26T00:13:36.648Z,93.78
2017-11-26T00:14:39.302Z,94.22
2017-11-26T00:15:42.114Z,94.15
2017-11-26T00:16:44.850Z,94.37
2017-11-26T00:17:48.018Z,94.19
2017-11-26T00:18:50.841Z,94.36
2017-11-26T00:19:53.814Z,94.15
2017-11-26T00:20:56.538Z,93.93
2017-11-26T00:21:59.308Z,94.49
2017-11-26T00:23:02.120Z,94.45
2017-11-26T00:24:05.073Z,94.78
2017-11-26T00:25:07.773Z,94.77
2017-11-26T00:26:10.653Z,94.22
2017-11-26T00:27:13.471Z,94.00
2017-11-26T00:28:16.327Z,94.28
2017-11-26T00:29:18.995Z,94.52
2017-11-26T00:30:22.181Z,94.38
2017-11-26T00:31:24.935Z,94.66
2017-11-26T00:32:27.663Z,94.58
2017-11-26T00:33:30.305Z,95.02
2017-11-26T00:34:33.196Z,94.91
2017-11-26T00:35:36.020Z,95.01
2017-11-26T00:36:39.134Z,94.90
2017-11-26T00:37:41.986Z,94.92
2017-11-26T00:38:44.615Z,94.86
2017-11-26T00:39:47.327Z,94.62
2017-11-26T00:40:50.110Z,94.33
2017-11-26T00:41:52.920Z,94.36
2017-11-26T00:42:55.968Z,94.03
2017-11-26T00:43:58.765Z,94.26
2017-11-26T00:45:01.408Z,94.46
2017-11-26T00:46:04.345Z,94.42
2017-11-26T00:47:07.024Z,94.55
2017-11-26T00:48:09.643Z,93.97
2017-11-26T00:49:12.533Z,94.20
2017-11-26T00:50:15.391Z,94.69
2017-11-26T00:51:18.059Z,94.52
2017-11-26T00:52:20.699Z,94.74
2017-11-26T00:53:23.403Z,94.98
2017-11-26T00:54:26.104Z,94.41
2017-11-26T00:55:29.071Z,94.35
2017-11-26T00:56:31.917Z,94.04
2017-11-26T00:57:34.640Z,94.60
2017-11-26T00:58:37.292Z,94.53
2017-11-26T00:59:39.901Z,94.67
2017-11-26T01:00:42.780Z,94.51
2017-11-26T01:01:45.864Z,94.71
2017-11-26T01:02:48.499Z,94.51
2017-11-26T01:03:51.128Z,94.71
2017-11-26T01:04:53.970Z,94.67
2017-11-26T01:05:56.762Z,94.64
2017-11-26T01:06:59.417Z,94.90
2017-11-26T01:08:03.385Z,94.83
2017-11-26T01:09:06.034Z,94.57
2017-11-26T01:10:08.650Z,94.61
2017-11-26T01:11:11.377Z,94.56
2017-11-26T01:12:14.191Z,94.73
2017-11-26T01:13:16.900Z,94.72
2017-11-26T01:14:20.897Z,94.77
2017-11-26T01:15:23.558Z,94.90
2017-11-26T01:16:26.203Z,94.40
2017-11-26T01:17:28.917Z,94.80
2017-11-26T01:18:31.547Z,94.87
2017-11-26T01:19:34.202Z,94.52
2017-11-26T01:20:37.292Z,94.69
2017-11-26T01:21:39.970Z,94.82
2017-11-26T01:22:43.674Z,94.65
2017-11-26T01:23:46.310Z,94.56
2017-11-26T01:24:49.120Z,94.74
2017-11-26T01:25:51.935Z,94.50
2017-11-26T01:26:54.831Z,94.68
2017-11-26T01:27:57.438Z,94.52
2017-11-26T01:29:00.254Z,93.95
2017-11-26T01:30:02.967Z,94.20
2017-11-26T01:31:05.628Z,94.80
2017-11-26T01:32:08.256Z,95.05
2017-11-26T01:33:11.156Z,94.35
2017-11-26T01:34:13.993Z,94.33
2017-11-26T01:35:16.804Z,94.77
2017-11-26T01:36:19.485Z,94.16
2017-11-26T01:37:22.285Z,94.34
2017-11-26T01:38:24.912Z,94.12
2017-11-26T01:39:27.967Z,94.48
2017-11-26T01:40:30.975Z,94.57
2017-11-26T01:41:33.806Z,94.48
2017-11-26T01:42:36.433Z,94.28
2017-11-26T01:43:39.214Z,94.14
2017-11-26T01:44:41.829Z,94.30
2017-11-26T01:45:44.788Z,94.36
2017-11-26T01:46:47.806Z,94.75
2017-11-26T01:47:50.482Z,94.82
2017-11-26T01:48:53.114Z,94.77
2017-11-26T01:49:55.841Z,94.62
2017-11-26T01:50:58.505Z,94.95
2017-11-26T01:52:01.462Z,94.39
2017-11-26T01:53:04.316Z,94.63
2017-11-26T01:54:06.991Z,94.60
2017-11-26T01:55:09.667Z,94.46
2017-11-26T01:56:12.394Z,94.31
2017-11-26T01:57:15.820Z,94.12
2017-11-26T01:58:18.733Z,94.05
2017-11-26T01:59:21.358Z,93.97
2017-11-26T02:00:23.998Z,93.90
2017-11-26T02:01:26.508Z,93.98
2017-11-26T02:02:29.520Z,94.15
2017-11-26T02:03:32.185Z,93.97
2017-11-26T02:04:35.195Z,93.82
2017-11-26T02:05:37.991Z,94.19
2017-11-26T02:06:40.711Z,93.80
2017-11-26T02:07:43.416Z,94.05
2017-11-26T02:08:46.125Z,93.60
2017-11-26T02:09:48.881Z,93.86
2017-11-26T02:10:51.862Z,93.50
2017-11-26T02:11:54.482Z,93.77
2017-11-26T02:12:57.169Z,93.52
2017-11-26T02:13:59.880Z,93.55
2017-11-26T02:15:02.560Z,93.67
2017-11-26T02:16:05.168Z,93.39
2017-11-26T02:17:08.053Z,93.50
2017-11-26T02:18:10.726Z,93.49
2017-11-26T02:19:13.396Z,93.52
2017-11-26T02:20:16.195Z,93.68
2017-11-26T02:21:18.879Z,93.24
2017-11-26T02:22:21.571Z,92.79
2017-11-26T02:23:24.616Z,93.42
2017-11-26T02:24:27.492Z,93.27
2017-11-26T02:25:30.200Z,93.03
2017-11-26T02:26:32.872Z,93.46
2017-11-26T02:27:35.492Z,93.33
2017-11-26T02:28:38.098Z,93.21
2017-11-26T02:29:41.025Z,93.51
2017-11-26T02:30:43.714Z,93.20
2017-11-26T02:31:46.453Z,93.14
2017-11-26T02:32:49.166Z,93.21
2017-11-26T02:33:53.777Z,92.76
2017-11-26T02:34:56.362Z,93.08
2017-11-26T02:35:59.288Z,93.41
2017-11-26T02:37:01.961Z,93.57
2017-11-26T02:38:04.725Z,93.39
2017-11-26T02:39:08.516Z,93.34
2017-11-26T02:40:11.127Z,92.86
2017-11-26T02:41:13.757Z,93.46
2017-11-26T02:42:16.645Z,93.50
2017-11-26T02:43:19.883Z,93.19
2017-11-26T02:44:22.489Z,93.20
2017-11-26T02:45:25.095Z,93.08
2017-11-26T02:46:27.742Z,92.97
2017-11-26T02:47:30.326Z,93.13
2017-11-26T02:48:33.136Z,92.79
2017-11-26T02:49:36.459Z,92.80
2017-11-26T02:50:39.086Z,92.99
2017-11-26T02:51:41.762Z,92.50
2017-11-26T02:52:44.434Z,92.45
2017-11-26T02:53:47.061Z,92.26
2017-11-26T02:54:49.942Z,92.20
2017-11-26T02:55:52.566Z,92.29
2017-11-26T02:56:55.174Z,92.13
2017-11-26T02:57:57.811Z,92.11
2017-11-26T02:59:00.417Z,92.26
2017-11-26T03:00:03.054Z,92.18
2017-11-26T03:01:05.979Z,91.92
2017-11-26T03:02:09.563Z,92.12
2017-11-26T03:03:12.165Z,92.48
2017-11-26T03:04:14.778Z,92.57
2017-11-26T03:05:17.396Z,92.86
2017-11-26T03:06:20.010Z,92.40
2017-11-26T03:07:22.907Z,92.71
2017-11-26T03:08:25.529Z,92.87
2017-11-26T03:09:28.154Z,92.68
2017-11-26T03:10:30.764Z,92.35
2017-11-26T03:11:33.400Z,92.30
2017-11-26T03:12:36.023Z,92.60
2017-11-26T03:13:38.975Z,92.63
2017-11-26T03:14:41.584Z,92.82
2017-11-26T03:15:44.234Z,92.85
2017-11-26T03:16:46.833Z,92.69
2017-11-26T03:17:49.436Z,92.75
2017-11-26T03:18:52.033Z,93.02
2017-11-26T03:19:54.957Z,92.87
2017-11-26T03:20:57.561Z,92.82
2017-11-26T03:22:00.222Z,92.18
2017-11-26T03:23:02.843Z,92.41
2017-11-26T03:24:05.536Z,92.40
2017-11-26T03:25:08.125Z,92.40
2017-11-26T03:26:11.056Z,92.87
2017-11-26T03:27:13.719Z,92.57
2017-11-26T03:28:16.509Z,92.58
2017-11-26T03:29:19.278Z,92.32
2017-11-26T03:30:22.093Z,92.12
2017-11-26T03:31:24.678Z,91.30
2017-11-26T03:32:27.632Z,91.45
2017-11-26T03:33:30.246Z,90.95
2017-11-26T03:34:32.873Z,91.40
2017-11-26T03:35:35.483Z,90.75
2017-11-26T03:36:38.051Z,91.50
2017-11-26T03:37:40.643Z,91.31
2017-11-26T03:38:43.695Z,91.36
2017-11-26T03:39:46.447Z,91.48
2017-11-26T03:40:49.183Z,91.32
2017-11-26T03:41:51.789Z,91.14
2017-11-26T03:42:54.478Z,91.19
2017-11-26T03:43:57.101Z,91.49
2017-11-26T03:45:00.132Z,90.73
2017-11-26T03:46:02.744Z,91.27
2017-11-26T03:47:05.354Z,91.32
2017-11-26T03:48:07.900Z,91.27
2017-11-26T03:49:10.466Z,91.01
2017-11-26T03:50:13.041Z,91.57
2017-11-26T03:51:15.911Z,91.59
2017-11-26T03:52:18.454Z,91.19
2017-11-26T03:53:21.031Z,91.36
2017-11-26T03:54:23.571Z,92.12
2017-11-26T03:55:26.130Z,91.36
2017-11-26T03:56:28.759Z,91.35
2017-11-26T03:57:31.701Z,91.03
2017-11-26T03:58:34.281Z,91.10
2017-11-26T03:59:36.894Z,91.34
2017-11-26T04:00:39.535Z,91.20
2017-11-26T04:01:42.135Z,91.03
2017-11-26T04:02:44.779Z,90.88
2017-11-26T04:03:47.411Z,91.30
2017-11-26T04:04:50.306Z,90.94
2017-11-26T04:05:52.885Z,91.15
2017-11-26T04:06:55.521Z,91.41
2017-11-26T04:07:58.172Z,91.32
2017-11-26T04:09:00.807Z,91.08
2017-11-26T04:10:03.485Z,91.38
2017-11-26T04:11:06.390Z,91.65
2017-11-26T04:12:08.994Z,91.43
2017-11-26T04:13:11.613Z,90.09
2017-11-26T04:14:14.206Z,90.23
2017-11-26T04:15:16.809Z,90.86
2017-11-26T04:16:19.549Z,91.08
2017-11-26T04:17:22.453Z,90.79
2017-11-26T04:18:25.718Z,90.48
2017-11-26T04:19:28.304Z,90.19
2017-11-26T04:20:30.913Z,90.54
2017-11-26T04:21:33.560Z,90.90
2017-11-26T04:22:36.215Z,90.81
2017-11-26T04:23:39.099Z,90.63
2017-11-26T04:24:41.743Z,90.71
2017-11-26T04:25:44.335Z,91.16
2017-11-26T04:26:46.923Z,91.42
2017-11-26T04:27:49.541Z,91.46
2017-11-26T04:28:52.165Z,91.01
2017-11-26T04:29:55.153Z,91.41
2017-11-26T04:30:57.794Z,91.24
2017-11-26T04:32:00.413Z,91.06
2017-11-26T04:33:03.076Z,90.93
2017-11-26T04:34:05.700Z,91.06
2017-11-26T04:35:08.341Z,90.96
2017-11-26T04:36:11.255Z,90.91
2017-11-26T04:37:13.843Z,90.64
2017-11-26T04:38:16.442Z,91.20
2017-11-26T04:39:19.067Z,91.04
2017-11-26T04:40:21.674Z,90.96
2017-11-26T04:41:24.857Z,91.12
2017-11-26T04:42:27.732Z,91.27
2017-11-26T04:43:30.410Z,91.28
2017-11-26T04:44:33.000Z,91.20
2017-11-26T04:45:35.668Z,91.32
2017-11-26T04:46:38.305Z,91.55
2017-11-26T04:47:40.984Z,91.78
2017-11-26T04:48:43.909Z,91.63
2017-11-26T04:49:46.534Z,91.02
2017-11-26T04:50:49.120Z,91.43
2017-11-26T04:51:51.806Z,91.53
2017-11-26T04:52:54.416Z,90.76
2017-11-26T04:53:57.035Z,91.46
2017-11-26T04:55:00.005Z,91.28
2017-11-26T04:56:02.719Z,90.91
2017-11-26T04:57:05.344Z,91.54
2017-11-26T04:58:07.949Z,91.43
2017-11-26T04:59:11.239Z,91.96
2017-11-26T05:15:20.035Z,91.97
2017-11-26T05:16:22.638Z,91.78
2017-11-26T05:17:25.284Z,91.68
2017-11-26T05:18:27.903Z,91.46
2017-11-26T05:19:30.584Z,92.06
2017-11-26T05:20:33.536Z,91.29
2017-11-26T05:21:36.148Z,91.89
2017-11-26T05:22:38.754Z,91.50
2017-11-26T05:23:41.374Z,91.58
2017-11-26T05:24:43.982Z,91.46
2017-11-26T05:25:46.626Z,91.64
2017-11-26T05:26:50.400Z,91.57
2017-11-26T05:27:53.007Z,91.81
2017-11-26T05:28:55.951Z,92.03
2017-11-26T05:29:58.596Z,92.59
2017-11-26T05:31:01.212Z,92.21
2017-11-26T05:32:03.849Z,91.87
2017-11-26T05:33:06.766Z,92.19
2017-11-26T05:34:09.369Z,92.17
2017-11-26T05:35:11.991Z,92.32
2017-11-26T05:36:14.588Z,92.35
2017-11-26T05:37:17.290Z,92.48
2017-11-26T05:38:19.899Z,92.71
2017-11-26T05:39:23.028Z,92.71
2017-11-26T05:40:25.712Z,92.07
2017-11-26T05:41:28.409Z,91.45
2017-11-26T05:42:31.112Z,91.47
2017-11-26T05:43:33.762Z,92.01
2017-11-26T05:44:36.345Z,92.30
2017-11-26T05:45:39.504Z,92.29
2017-11-26T05:46:42.184Z,92.23
2017-11-26T05:47:44.895Z,92.38
2017-11-26T05:48:47.501Z,92.42
2017-11-26T05:49:50.148Z,92.99
2017-11-26T05:50:52.759Z,92.50
2017-11-26T05:51:55.711Z,92.95
2017-11-26T05:52:58.189Z,92.39
2017-11-26T05:54:00.783Z,92.08
2017-11-26T05:55:03.361Z,92.18
2017-11-26T05:56:05.890Z,92.28
2017-11-26T05:57:08.533Z,92.51
2017-11-26T05:58:11.467Z,92.67
2017-11-26T05:59:14.129Z,92.59
2017-11-26T06:00:16.794Z,92.97
2017-11-26T06:01:19.413Z,92.68
2017-11-26T06:06:03.392Z,92.44
2017-11-26T06:07:05.945Z,92.17
2017-11-26T06:08:08.427Z,91.62
2017-11-26T06:09:10.904Z,91.31
2017-11-26T06:10:13.497Z,92.01
2017-11-26T06:11:16.230Z,91.56
2017-11-26T06:12:18.858Z,91.18
2017-11-26T06:13:21.447Z,91.82
2017-11-26T06:14:24.018Z,90.90
2017-11-26T06:15:26.629Z,91.52
2017-11-26T06:16:29.327Z,91.15
2017-11-26T06:17:32.335Z,91.25
2017-11-26T06:18:35.000Z,91.19
2017-11-26T06:19:37.524Z,91.32
2017-11-26T06:20:40.176Z,91.36
2017-11-26T06:21:42.817Z,91.24
2017-11-26T06:22:45.437Z,91.23
2017-11-26T06:23:48.315Z,91.06
2017-11-26T06:24:51.007Z,91.03
2017-11-26T06:25:53.593Z,91.00
2017-11-26T06:26:56.160Z,91.09
2017-11-26T06:27:58.767Z,90.74
2017-11-26T06:29:01.463Z,90.00
2017-11-26T06:30:04.573Z,89.92
2017-11-26T06:31:07.256Z,90.72
2017-11-26T06:32:09.905Z,90.70
2017-11-26T06:33:12.594Z,90.51
2017-11-26T06:34:15.202Z,90.79
2017-11-26T06:35:17.917Z,90.81
2017-11-26T06:36:20.901Z,90.90
2017-11-26T06:37:23.584Z,90.36
2017-11-26T06:38:26.204Z,90.50
2017-11-26T06:39:28.823Z,90.55
2017-11-26T06:40:31.548Z,91.30
2017-11-26T06:41:34.179Z,91.49
2017-11-26T06:42:37.188Z,91.33
2017-11-26T06:43:39.945Z,91.72
2017-11-26T06:44:42.627Z,90.87
2017-11-26T06:45:45.276Z,90.70
2017-11-26T06:46:48.013Z,91.33
2017-11-26T06:47:50.634Z,91.34
2017-11-26T06:48:53.356Z,90.63
2017-11-26T06:49:56.024Z,90.81
2017-11-26T06:50:58.633Z,91.32
2017-11-26T06:52:01.282Z,90.72
2017-11-26T06:53:03.933Z,91.41
2017-11-26T06:54:06.602Z,91.07
2017-11-26T06:55:09.561Z,91.00
2017-11-26T06:56:12.214Z,90.93
2017-11-26T06:57:14.846Z,90.36
2017-11-26T06:58:17.545Z,90.92
2017-11-26T06:59:20.155Z,90.81
2017-11-26T07:00:22.658Z,90.44
2017-11-26T07:01:25.691Z,90.36
2017-11-26T07:02:28.326Z,90.86
2017-11-26T07:03:30.955Z,90.84
2017-11-26T07:04:33.677Z,89.83
2017-11-26T07:05:36.316Z,89.64
2017-11-26T07:06:38.908Z,89.46
2017-11-26T07:07:42.046Z,90.08
2017-11-26T07:08:44.722Z,90.08
2017-11-26T07:09:47.354Z,90.30
2017-11-26T07:10:50.062Z,90.27
2017-11-26T07:11:52.758Z,90.02
2017-11-26T07:12:55.439Z,90.26
2017-11-26T07:13:58.558Z,90.32
2017-11-26T07:15:01.209Z,90.69
2017-11-26T07:16:03.865Z,90.89
2017-11-26T07:17:06.490Z,90.83
2017-11-26T07:18:09.105Z,90.67
2017-11-26T07:19:11.786Z,89.46
2017-11-26T07:20:14.875Z,89.69
2017-11-26T07:21:17.849Z,89.97
2017-11-26T07:22:20.498Z,90.34
2017-11-26T07:23:23.255Z,90.13
2017-11-26T07:24:26.048Z,89.28
2017-11-26T07:25:28.661Z,89.70
2017-11-26T07:26:31.731Z,89.15
2017-11-26T07:27:34.345Z,88.88
2017-11-26T07:28:36.938Z,88.96
2017-11-26T07:29:39.615Z,89.30
2017-11-26T07:30:42.280Z,88.81
2017-11-26T07:31:44.888Z,89.02
2017-11-26T07:32:47.958Z,87.84
2017-11-26T07:33:50.585Z,88.45
2017-11-26T07:34:53.240Z,87.96
2017-11-26T07:35:55.854Z,88.35
2017-11-26T07:36:58.517Z,87.45
2017-11-26T07:38:01.225Z,88.27
2017-11-26T07:39:04.441Z,88.24
2017-11-26T07:40:07.115Z,89.01
2017-11-26T07:41:09.877Z,89.29
2017-11-26T07:42:12.503Z,88.27
2017-11-26T07:43:15.194Z,88.62
2017-11-26T07:44:17.840Z,87.94
2017-11-26T07:45:20.950Z,88.49
2017-11-26T07:46:23.589Z,88.79
2017-11-26T07:47:26.246Z,88.92
2017-11-26T07:48:28.891Z,88.22
2017-11-26T07:49:31.534Z,88.46
2017-11-26T07:50:34.186Z,89.08
2017-11-26T07:51:37.146Z,89.48
2017-11-26T07:52:39.839Z,89.26
2017-11-26T07:53:42.510Z,88.98
2017-11-26T07:54:45.160Z,88.00
2017-11-26T07:55:47.866Z,88.25
2017-11-26T07:56:50.501Z,88.60
2017-11-26T07:57:53.700Z,88.18
2017-11-26T07:58:56.344Z,88.16
2017-11-26T07:59:59.054Z,88.17
2017-11-26T08:01:01.667Z,87.85
2017-11-26T08:02:04.332Z,87.97
2017-11-26T08:03:06.967Z,88.20
2017-11-26T08:04:10.063Z,88.21
2017-11-26T08:05:12.828Z,87.73
2017-11-26T08:06:15.496Z,88.38
2017-11-26T08:07:18.181Z,88.33
2017-11-26T08:08:20.814Z,88.79
2017-11-26T08:09:23.471Z,88.78
2017-11-26T08:10:26.438Z,88.41
2017-11-26T08:11:29.063Z,88.62
2017-11-26T08:12:31.688Z,88.56
2017-11-26T08:13:34.237Z,88.64
2017-11-26T08:14:37.411Z,89.08
2017-11-26T08:15:40.026Z,89.09
2017-11-26T08:16:42.681Z,89.66
2017-11-26T08:17:45.422Z,89.96
2017-11-26T08:18:48.061Z,89.10
2017-11-26T08:19:50.693Z,89.58
2017-11-26T08:20:53.298Z,88.78
2017-11-26T08:21:56.412Z,89.52
2017-11-26T08:22:59.015Z,88.99
2017-11-26T08:24:01.809Z,89.04
2017-11-26T08:25:04.473Z,89.06
2017-11-26T08:26:07.080Z,88.13
2017-11-26T08:27:09.719Z,88.69
2017-11-26T08:28:12.970Z,88.74
2017-11-26T08:29:15.654Z,88.84
2017-11-26T08:30:18.317Z,88.59
2017-11-26T08:31:20.935Z,89.11
2017-11-26T08:32:23.532Z,88.61
2017-11-26T08:33:26.178Z,89.09
2017-11-26T08:34:29.357Z,88.93
2017-11-26T08:35:31.982Z,88.96
2017-11-26T08:36:34.683Z,89.82
2017-11-26T08:37:37.289Z,89.27
2017-11-26T08:38:39.981Z,89.74
2017-11-26T08:39:42.670Z,89.95
2017-11-26T08:40:45.818Z,90.59
2017-11-26T08:41:48.571Z,90.55
2017-11-26T08:42:51.320Z,89.81
2017-11-26T08:43:53.970Z,90.36
2017-11-26T08:44:56.626Z,90.90
2017-11-26T08:45:59.310Z,91.65
2017-11-26T08:47:02.516Z,90.91
2017-11-26T08:48:05.308Z,90.75
2017-11-26T08:49:08.301Z,90.82
2017-11-26T08:50:11.072Z,91.75
2017-11-26T08:51:13.832Z,91.12
2017-11-26T08:52:16.660Z,91.92
2017-11-26T08:53:19.918Z,92.30
2017-11-26T08:54:22.750Z,91.88
2017-11-26T08:55:25.685Z,92.69
2017-11-26T08:56:28.458Z,92.64
2017-11-26T08:57:31.207Z,91.98
2017-11-26T08:58:33.996Z,92.21
2017-11-26T08:59:37.108Z,92.69
2017-11-26T09:00:40.111Z,92.09
2017-11-26T09:01:42.895Z,92.18
2017-11-26T09:02:45.655Z,92.90
2017-11-26T09:03:48.439Z,91.47
2017-11-26T09:04:51.193Z,91.79
2017-11-26T09:05:54.340Z,92.09
2017-11-26T09:06:57.114Z,92.29
2017-11-26T09:07:59.912Z,92.44
2017-11-26T09:09:02.745Z,92.55
2017-11-26T09:10:05.502Z,93.06
2017-11-26T09:11:08.338Z,92.98
2017-11-26T09:12:11.632Z,93.26
2017-11-26T09:13:14.418Z,93.09
2017-11-26T09:14:17.162Z,93.50
2017-11-26T09:15:19.983Z,93.27
2017-11-26T09:16:22.766Z,93.20
2017-11-26T09:17:25.577Z,92.96
2017-11-26T09:18:28.747Z,93.22
2017-11-26T09:19:31.465Z,93.64
2017-11-26T09:20:34.227Z,93.86
2017-11-26T09:21:37.436Z,93.54
2017-11-26T09:22:40.147Z,93.59
2017-11-26T09:23:42.832Z,93.52
2017-11-26T09:24:46.033Z,93.33
2017-11-26T09:25:48.702Z,93.28
2017-11-26T09:26:51.341Z,93.26
2017-11-26T09:27:53.969Z,93.70
2017-11-26T09:28:56.511Z,93.40
2017-11-26T09:29:59.143Z,93.68
2017-11-26T09:31:02.055Z,93.46
2017-11-26T09:32:04.929Z,93.22
2017-11-26T09:33:07.574Z,92.68
2017-11-26T09:34:10.210Z,92.96
2017-11-26T09:35:12.841Z,93.32
2017-11-26T09:36:16.599Z,93.29
2017-11-26T09:37:19.605Z,93.27
2017-11-26T09:38:22.229Z,93.47
2017-11-26T09:39:24.860Z,93.49
2017-11-26T09:40:27.509Z,93.27
2017-11-26T09:41:30.164Z,93.65
2017-11-26T09:42:32.826Z,93.42
2017-11-26T09:43:35.941Z,93.67
2017-11-26T09:44:38.579Z,94.10
2017-11-26T09:45:41.245Z,94.21
2017-11-26T09:46:43.925Z,93.92
2017-11-26T09:47:46.537Z,94.52
2017-11-26T09:48:49.147Z,94.11
2017-11-26T09:49:52.232Z,93.47
2017-11-26T09:50:54.869Z,93.32
2017-11-26T09:51:57.561Z,94.03
2017-11-26T09:53:00.148Z,93.56
2017-11-26T09:54:02.814Z,93.51
2017-11-26T09:55:05.486Z,93.37
2017-11-26T09:56:08.443Z,93.58
2017-11-26T09:57:11.021Z,93.20
2017-11-26T09:58:13.710Z,93.18
2017-11-26T09:59:16.524Z,93.38
2017-11-26T10:00:19.182Z,93.80
2017-11-26T10:01:21.797Z,93.72
2017-11-26T10:02:24.884Z,93.66
2017-11-26T10:03:27.613Z,93.53
2017-11-26T10:04:30.246Z,94.11
2017-11-26T10:05:32.904Z,94.28
2017-11-26T10:06:35.584Z,94.25
2017-11-26T10:07:38.195Z,94.25
2017-11-26T10:08:41.384Z,94.74
2017-11-26T10:09:44.033Z,94.55
2017-11-26T10:10:47.523Z,93.96
2017-11-26T10:11:50.265Z,94.01
2017-11-26T10:12:52.943Z,94.61
2017-11-26T10:13:55.591Z,94.43
2017-11-26T10:14:58.534Z,94.37
2017-11-26T10:16:01.204Z,94.61
2017-11-26T10:17:03.881Z,93.83
2017-11-26T10:18:06.625Z,93.89
2017-11-26T10:19:09.321Z,94.35
2017-11-26T10:20:11.989Z,94.54
2017-11-26T10:21:15.163Z,94.62
2017-11-26T10:22:17.823Z,93.96
2017-11-26T10:23:20.499Z,93.71
2017-11-26T10:24:23.119Z,94.63
2017-11-26T10:25:25.761Z,93.97
2017-11-26T10:26:28.384Z,93.69
2017-11-26T10:27:31.368Z,93.09
2017-11-26T10:28:34.059Z,94.03
2017-11-26T10:29:36.677Z,93.84
2017-11-26T10:30:39.623Z,93.23
2017-11-26T10:31:42.326Z,93.48
2017-11-26T10:32:44.944Z,93.99
2017-11-26T10:33:47.878Z,93.45
2017-11-26T10:34:50.533Z,93.24
2017-11-26T10:35:53.163Z,93.92
2017-11-26T10:36:55.792Z,93.91
2017-11-26T10:37:58.428Z,93.83
2017-11-26T10:39:01.117Z,94.03
2017-11-26T10:40:04.076Z,93.81
2017-11-26T10:41:06.756Z,93.83
2017-11-26T10:42:09.390Z,94.04
2017-11-26T10:43:12.046Z,94.45
2017-11-26T10:44:14.655Z,94.86
2017-11-26T10:45:17.297Z,93.93
2017-11-26T10:46:20.408Z,94.12
2017-11-26T10:47:23.030Z,94.53
2017-11-26T10:48:25.696Z,93.88
2017-11-26T10:49:28.406Z,94.25
2017-11-26T10:50:31.081Z,93.41
2017-11-26T10:51:33.737Z,93.12
2017-11-26T10:52:36.680Z,94.06
2017-11-26T10:53:39.303Z,93.40
2017-11-26T10:54:41.986Z,93.72
2017-11-26T10:55:44.621Z,93.98
2017-11-26T10:56:47.350Z,93.72
2017-11-26T10:57:49.983Z,94.52
2017-11-26T10:58:52.898Z,94.41
2017-11-26T11:15:29.350Z,95.16
2017-11-26T11:16:32.191Z,94.71
2017-11-26T11:17:34.812Z,94.09
2017-11-26T11:18:37.574Z,94.35
2017-11-26T11:19:40.451Z,94.00
2017-11-26T11:20:43.477Z,94.16
2017-11-26T11:21:46.255Z,92.83
2017-11-26T11:22:49.047Z,93.25
2017-11-26T11:23:51.659Z,93.14
2017-11-26T11:24:54.367Z,93.47
2017-11-26T11:25:57.043Z,93.90
2017-11-26T11:27:00.394Z,93.81
2017-11-26T11:28:03.105Z,93.42
2017-11-26T11:29:05.736Z,93.58
2017-11-26T11:30:08.556Z,93.75
2017-11-26T11:31:11.217Z,93.38
2017-11-26T11:32:13.902Z,92.93
2017-11-26T11:33:16.823Z,93.97
2017-11-26T11:34:19.769Z,93.08
2017-11-26T11:35:22.474Z,93.69
2017-11-26T11:36:25.151Z,93.80
2017-11-26T11:37:27.761Z,93.06
2017-11-26T11:38:30.435Z,93.46
2017-11-26T11:39:33.374Z,93.11
2017-11-26T11:40:35.995Z,93.21
2017-11-26T11:41:38.654Z,93.80
2017-11-26T11:42:41.299Z,93.46
2017-11-26T11:43:43.943Z,94.17
2017-11-26T11:44:46.606Z,93.68
2017-11-26T11:45:49.570Z,94.22
2017-11-26T11:46:52.218Z,94.48
2017-11-26T11:47:54.886Z,94.09
2017-11-26T11:48:57.556Z,94.00
2017-11-26T11:50:00.247Z,93.38
2017-11-26T11:51:03.501Z,92.69
2017-11-26T11:52:06.538Z,93.64
2017-11-26T11:53:09.178Z,93.85
2017-11-26T11:54:11.940Z,93.62
2017-11-26T11:55:14.619Z,93.41
2017-11-26T11:56:17.236Z,93.63
2017-11-26T11:57:19.933Z,93.87
2017-11-26T11:58:22.877Z,93.62
2017-11-26T11:59:25.480Z,93.79
2017-11-26T12:00:28.283Z,93.20
2017-11-26T12:01:30.908Z,93.05
2017-11-26T12:02:33.762Z,93.64
2017-11-26T12:03:36.485Z,94.05
2017-11-26T12:04:39.521Z,94.19
2017-11-26T12:05:42.151Z,94.17
2017-11-26T12:06:45.126Z,93.85
2017-11-26T12:07:48.227Z,94.15
2017-11-26T12:08:51.087Z,94.52
2017-11-26T12:09:53.727Z,94.37
2017-11-26T12:10:56.837Z,94.77
2017-11-26T12:11:59.480Z,93.89
2017-11-26T12:13:02.317Z,94.54
2017-11-26T12:14:05.088Z,94.64
2017-11-26T12:15:07.783Z,94.04
2017-11-26T12:16:10.476Z,93.58
2017-11-26T12:17:13.583Z,94.03
2017-11-26T12:18:16.305Z,94.11
2017-11-26T12:19:19.014Z,94.02
2017-11-26T12:20:21.687Z,94.43
2017-11-26T12:21:24.320Z,93.79
2017-11-26T12:22:27.202Z,94.74
2017-11-26T12:23:30.226Z,94.02
2017-11-26T12:24:33.085Z,94.32
2017-11-26T12:25:35.710Z,93.69
2017-11-26T12:26:38.603Z,94.50
2017-11-26T12:27:41.263Z,94.45
2017-11-26T12:28:43.877Z,94.21
2017-11-26T12:29:46.764Z,94.19
2017-11-26T12:30:49.555Z,94.46
2017-11-26T12:31:52.305Z,93.61
2017-11-26T12:32:54.965Z,93.94
2017-11-26T12:33:57.576Z,94.21
2017-11-26T12:35:00.450Z,93.66
2017-11-26T12:36:03.572Z,93.90
2017-11-26T12:37:06.306Z,93.75
2017-11-26T12:38:08.943Z,94.31
2017-11-26T12:39:12.181Z,93.75
2017-11-26T12:40:14.899Z,93.80
2017-11-26T12:41:17.614Z,93.63
2017-11-26T12:42:20.576Z,94.01
2017-11-26T12:43:23.348Z,93.92
2017-11-26T12:44:26.145Z,93.93
2017-11-26T12:45:28.803Z,93.67
2017-11-26T12:46:31.433Z,93.26
2017-11-26T12:47:34.066Z,93.22
2017-11-26T12:48:37.069Z,93.83
2017-11-26T12:49:39.669Z,93.95
2017-11-26T12:50:42.288Z,93.33
2017-11-26T12:51:44.913Z,92.85
2017-11-26T12:52:47.516Z,93.00
2017-11-26T12:53:50.154Z,93.78
2017-11-26T12:54:53.117Z,93.96
2017-11-26T12:55:55.738Z,93.85
2017-11-26T12:56:58.373Z,93.02
2017-11-26T12:58:01.022Z,92.97
2017-11-26T12:59:03.702Z,93.17
2017-11-26T13:00:06.363Z,93.83
2017-11-26T13:01:09.289Z,92.45
2017-11-26T13:02:12.184Z,92.50
2017-11-26T13:03:14.841Z,93.29
2017-11-26T13:04:17.800Z,92.19
2017-11-26T13:05:20.545Z,92.51
2017-11-26T13:06:23.238Z,93.18
2017-11-26T13:07:26.245Z,92.25
2017-11-26T13:08:28.865Z,93.07
2017-11-26T13:09:31.668Z,92.81
2017-11-26T13:10:34.338Z,92.42
2017-11-26T13:11:36.996Z,93.25
2017-11-26T13:12:39.628Z,93.14
2017-11-26T13:13:42.600Z,93.08
2017-11-26T13:14:45.208Z,93.16
2017-11-26T13:15:48.013Z,93.68
2017-11-26T13:16:50.607Z,92.62
2017-11-26T13:17:53.375Z,92.75
2017-11-26T13:18:56.027Z,92.77
2017-11-26T13:19:59.036Z,92.73
2017-11-26T13:21:01.700Z,93.34
2017-11-26T13:22:04.359Z,93.01
2017-11-26T13:23:07.039Z,92.99
2017-11-26T13:24:09.659Z,92.65
2017-11-26T13:25:12.861Z,93.05
2017-11-26T13:26:15.751Z,93.01
2017-11-26T13:27:18.423Z,92.50
2017-11-26T13:28:21.061Z,92.97
2017-11-26T13:29:23.686Z,93.81
2017-11-26T13:30:26.294Z,93.65
2017-11-26T13:31:28.937Z,93.01
2017-11-26T13:32:31.853Z,93.13
2017-11-26T13:33:34.472Z,92.65
2017-11-26T13:34:37.079Z,93.18
2017-11-26T13:35:39.761Z,93.34
2017-11-26T13:36:42.368Z,93.62
2017-11-26T13:37:45.042Z,93.52
2017-11-26T13:38:47.937Z,93.49
2017-11-26T13:39:50.650Z,93.25
2017-11-26T13:40:53.213Z,92.53
2017-11-26T13:41:55.869Z,92.95
2017-11-26T13:42:58.828Z,93.64
2017-11-26T13:44:01.801Z,93.74
2017-11-26T13:45:05.599Z,93.38
2017-11-26T13:46:09.054Z,93.74
2017-11-26T13:47:11.736Z,93.67
2017-11-26T13:48:14.361Z,93.67
2017-11-26T13:49:17.094Z,93.52
2017-11-26T13:50:19.772Z,92.63
2017-11-26T13:51:22.730Z,92.89
2017-11-26T13:52:25.415Z,93.03
2017-11-26T13:53:28.093Z,93.03
2017-11-26T13:54:30.799Z,93.30
2017-11-26T13:55:33.487Z,93.33
2017-11-26T13:56:36.140Z,92.69
2017-11-26T13:57:39.165Z,92.65
2017-11-26T13:58:41.821Z,92.67
2017-11-26T13:59:44.449Z,93.10
2017-11-26T14:00:47.070Z,93.44
2017-11-26T14:01:49.728Z,93.85
2017-11-26T14:02:52.355Z,92.70